sensor_id;sensor_type;location;lat;lon;timestamp;temperature;humidity
37984;DHT22;64625;50.882;4.376;2023-01-20T00:01:43;2.30;99.90
37984;DHT22;64625;50.882;4.376;2023-01-20T00:04:12;2.30;99.90
37984;DHT22;64625;50.882;4.376;2023-01-20T00:06:38;2.30;99.90
37984;DHT22;64625;50.882;4.376;2023-01-20T00:09:04;2.30;99.90
37984;DHT22;64625;50.882;4.376;2023-01-20T00:11:30;2.40;99.90
37984;DHT22;64625;50.882;4.376;2023-01-20T00:13:59;2.40;99.90
37984;DHT22;64625;50.882;4.376;2023-01-20T00:16:25;2.40;99.90
37984;DHT22;64625;50.882;4.376;2023-01-20T00:18:51;2.40;99.90
37984;DHT22;64625;50.882;4.376;2023-01-20T00:21:17;2.40;99.90
37984;DHT22;64625;50.882;4.376;2023-01-20T00:23:44;2.40;99.90
37984;DHT22;64625;50.882;4.376;2023-01-20T00:26:15;2.40;99.90
37984;DHT22;64625;50.882;4.376;2023-01-20T00:28:42;2.40;99.90
37984;DHT22;64625;50.882;4.376;2023-01-20T00:33:40;2.40;99.90
37984;DHT22;64625;50.882;4.376;2023-01-20T00:36:06;2.40;99.90
37984;DHT22;64625;50.882;4.376;2023-01-20T00:38:33;2.40;99.90
37984;DHT22;64625;50.882;4.376;2023-01-20T00:40:59;2.40;99.90
37984;DHT22;64625;50.882;4.376;2023-01-20T00:43:24;2.40;99.90
37984;DHT22;64625;50.882;4.376;2023-01-20T00:45:50;2.40;99.90
37984;DHT22;64625;50.882;4.376;2023-01-20T00:48:16;2.40;99.90
37984;DHT22;64625;50.882;4.376;2023-01-20T00:50:42;2.40;99.90
37984;DHT22;64625;50.882;4.376;2023-01-20T00:53:08;2.40;99.90
37984;DHT22;64625;50.882;4.376;2023-01-20T00:55:33;2.40;99.90
37984;DHT22;64625;50.882;4.376;2023-01-20T00:57:59;2.40;99.90
37984;DHT22;64625;50.882;4.376;2023-01-20T01:00:25;2.40;99.90
37984;DHT22;64625;50.882;4.376;2023-01-20T01:02:51;2.40;99.90
37984;DHT22;64625;50.882;4.376;2023-01-20T01:05:16;2.40;99.90
37984;DHT22;64625;50.882;4.376;2023-01-20T01:07:43;2.30;99.90
37984;DHT22;64625;50.882;4.376;2023-01-20T01:10:09;2.30;99.90
37984;DHT22;64625;50.882;4.376;2023-01-20T01:12:35;2.30;99.90
37984;DHT22;64625;50.882;4.376;2023-01-20T01:15:01;2.30;99.90
37984;DHT22;64625;50.882;4.376;2023-01-20T01:17:27;2.30;99.90
37984;DHT22;64625;50.882;4.376;2023-01-20T01:19:54;2.30;99.90
37984;DHT22;64625;50.882;4.376;2023-01-20T01:22:23;2.30;99.90
37984;DHT22;64625;50.882;4.376;2023-01-20T01:24:48;2.30;99.90
37984;DHT22;64625;50.882;4.376;2023-01-20T01:27:14;2.30;99.90
37984;DHT22;64625;50.882;4.376;2023-01-20T01:29:40;2.30;99.90
37984;DHT22;64625;50.882;4.376;2023-01-20T01:32:06;2.30;99.90
37984;DHT22;64625;50.882;4.376;2023-01-20T01:34:33;2.30;99.90
37984;DHT22;64625;50.882;4.376;2023-01-20T01:37:01;2.30;99.90
37984;DHT22;64625;50.882;4.376;2023-01-20T01:39:27;2.30;99.90
37984;DHT22;64625;50.882;4.376;2023-01-20T01:41:53;2.30;99.90
37984;DHT22;64625;50.882;4.376;2023-01-20T01:44:18;2.30;99.90
37984;DHT22;64625;50.882;4.376;2023-01-20T01:46:45;2.30;99.90
37984;DHT22;64625;50.882;4.376;2023-01-20T01:49:40;2.30;99.90
37984;DHT22;64625;50.882;4.376;2023-01-20T01:52:07;2.30;99.90
37984;DHT22;64625;50.882;4.376;2023-01-20T01:54:38;2.30;99.90
37984;DHT22;64625;50.882;4.376;2023-01-20T01:57:07;2.30;99.90
37984;DHT22;64625;50.882;4.376;2023-01-20T01:59:36;2.30;99.90
37984;DHT22;64625;50.882;4.376;2023-01-20T02:02:02;2.30;99.90
37984;DHT22;64625;50.882;4.376;2023-01-20T02:04:28;2.30;99.90
37984;DHT22;64625;50.882;4.376;2023-01-20T02:07:03;2.30;99.90
37984;DHT22;64625;50.882;4.376;2023-01-20T02:09:30;2.30;99.90
37984;DHT22;64625;50.882;4.376;2023-01-20T02:12:03;2.30;99.90
37984;DHT22;64625;50.882;4.376;2023-01-20T02:14:35;2.30;99.90
37984;DHT22;64625;50.882;4.376;2023-01-20T02:22:28;2.30;99.90
37984;DHT22;64625;50.882;4.376;2023-01-20T02:36:46;2.30;99.90
37984;DHT22;64625;50.882;4.376;2023-01-20T02:39:29;2.30;99.90
37984;DHT22;64625;50.882;4.376;2023-01-20T02:44:50;2.20;99.90
37984;DHT22;64625;50.882;4.376;2023-01-20T02:50:21;2.20;99.90
37984;DHT22;64625;50.882;4.376;2023-01-20T02:52:54;2.20;99.90
37984;DHT22;64625;50.882;4.376;2023-01-20T02:55:42;2.20;99.90
37984;DHT22;64625;50.882;4.376;2023-01-20T03:00:54;2.20;99.90
37984;DHT22;64625;50.882;4.376;2023-01-20T03:03:26;2.20;99.90
37984;DHT22;64625;50.882;4.376;2023-01-20T03:05:58;2.20;99.90
37984;DHT22;64625;50.882;4.376;2023-01-20T03:08:27;2.20;99.90
37984;DHT22;64625;50.882;4.376;2023-01-20T03:10:54;2.20;99.90
37984;DHT22;64625;50.882;4.376;2023-01-20T03:13:54;2.20;99.90
37984;DHT22;64625;50.882;4.376;2023-01-20T03:16:24;2.20;99.90
37984;DHT22;64625;50.882;4.376;2023-01-20T03:18:51;2.20;99.90
37984;DHT22;64625;50.882;4.376;2023-01-20T03:21:18;2.20;99.90
37984;DHT22;64625;50.882;4.376;2023-01-20T03:23:50;2.20;99.90
37984;DHT22;64625;50.882;4.376;2023-01-20T03:26:17;2.20;99.90
37984;DHT22;64625;50.882;4.376;2023-01-20T03:28:44;2.20;99.90
37984;DHT22;64625;50.882;4.376;2023-01-20T03:31:20;2.10;99.90
37984;DHT22;64625;50.882;4.376;2023-01-20T03:33:49;2.20;99.90
37984;DHT22;64625;50.882;4.376;2023-01-20T03:36:16;2.10;99.90
37984;DHT22;64625;50.882;4.376;2023-01-20T03:38:44;2.10;99.90
37984;DHT22;64625;50.882;4.376;2023-01-20T03:41:18;2.10;99.90
37984;DHT22;64625;50.882;4.376;2023-01-20T03:46:40;2.20;99.90
37984;DHT22;64625;50.882;4.376;2023-01-20T03:49:17;2.10;99.90
37984;DHT22;64625;50.882;4.376;2023-01-20T03:54:13;2.10;99.90
37984;DHT22;64625;50.882;4.376;2023-01-20T03:56:56;2.10;99.90
37984;DHT22;64625;50.882;4.376;2023-01-20T03:59:42;2.10;99.90
37984;DHT22;64625;50.882;4.376;2023-01-20T04:02:09;2.10;99.90
37984;DHT22;64625;50.882;4.376;2023-01-20T04:04:39;2.10;99.90
37984;DHT22;64625;50.882;4.376;2023-01-20T04:07:10;2.10;99.90
37984;DHT22;64625;50.882;4.376;2023-01-20T04:09:44;2.10;99.90
37984;DHT22;64625;50.882;4.376;2023-01-20T04:12:14;2.10;99.90
37984;DHT22;64625;50.882;4.376;2023-01-20T04:14:39;2.10;99.90
37984;DHT22;64625;50.882;4.376;2023-01-20T04:17:05;2.10;99.90
37984;DHT22;64625;50.882;4.376;2023-01-20T04:19:32;2.10;99.90
37984;DHT22;64625;50.882;4.376;2023-01-20T04:27:08;2.10;99.90
37984;DHT22;64625;50.882;4.376;2023-01-20T04:29:33;2.10;99.90
37984;DHT22;64625;50.882;4.376;2023-01-20T04:32:00;2.10;99.90
37984;DHT22;64625;50.882;4.376;2023-01-20T04:34:27;2.10;99.90
37984;DHT22;64625;50.882;4.376;2023-01-20T04:36:53;2.10;99.90
37984;DHT22;64625;50.882;4.376;2023-01-20T04:39:19;2.10;99.90
37984;DHT22;64625;50.882;4.376;2023-01-20T04:41:46;2.10;99.90
37984;DHT22;64625;50.882;4.376;2023-01-20T04:44:12;2.10;99.90
37984;DHT22;64625;50.882;4.376;2023-01-20T04:46:38;2.20;99.90
37984;DHT22;64625;50.882;4.376;2023-01-20T04:49:03;2.20;99.90
37984;DHT22;64625;50.882;4.376;2023-01-20T04:51:31;2.20;99.90
37984;DHT22;64625;50.882;4.376;2023-01-20T04:53:58;2.20;99.90
37984;DHT22;64625;50.882;4.376;2023-01-20T04:56:24;2.10;99.90
37984;DHT22;64625;50.882;4.376;2023-01-20T04:58:50;2.20;99.90
37984;DHT22;64625;50.882;4.376;2023-01-20T05:01:16;2.10;99.90
37984;DHT22;64625;50.882;4.376;2023-01-20T05:03:42;2.20;99.90
37984;DHT22;64625;50.882;4.376;2023-01-20T05:06:11;2.20;99.90
37984;DHT22;64625;50.882;4.376;2023-01-20T05:08:36;2.20;99.90
37984;DHT22;64625;50.882;4.376;2023-01-20T05:11:03;2.20;99.90
37984;DHT22;64625;50.882;4.376;2023-01-20T05:13:29;2.20;99.90
37984;DHT22;64625;50.882;4.376;2023-01-20T05:15:54;2.20;99.90
37984;DHT22;64625;50.882;4.376;2023-01-20T05:18:20;2.10;99.90
37984;DHT22;64625;50.882;4.376;2023-01-20T05:20:47;2.20;99.90
37984;DHT22;64625;50.882;4.376;2023-01-20T05:23:14;2.20;99.90
37984;DHT22;64625;50.882;4.376;2023-01-20T05:25:40;2.20;99.90
37984;DHT22;64625;50.882;4.376;2023-01-20T05:28:06;2.20;99.90
37984;DHT22;64625;50.882;4.376;2023-01-20T05:30:32;2.20;99.90
37984;DHT22;64625;50.882;4.376;2023-01-20T05:32:59;2.20;99.90
37984;DHT22;64625;50.882;4.376;2023-01-20T05:35:24;2.20;99.90
37984;DHT22;64625;50.882;4.376;2023-01-20T05:37:54;2.20;99.90
37984;DHT22;64625;50.882;4.376;2023-01-20T05:40:20;2.20;99.90
37984;DHT22;64625;50.882;4.376;2023-01-20T05:42:46;2.20;99.90
37984;DHT22;64625;50.882;4.376;2023-01-20T05:45:12;2.20;99.90
37984;DHT22;64625;50.882;4.376;2023-01-20T05:47:38;2.20;99.90
37984;DHT22;64625;50.882;4.376;2023-01-20T05:50:04;2.20;99.90
37984;DHT22;64625;50.882;4.376;2023-01-20T05:52:30;2.20;99.90
37984;DHT22;64625;50.882;4.376;2023-01-20T05:54:56;2.20;99.90
37984;DHT22;64625;50.882;4.376;2023-01-20T05:57:25;2.20;99.90
37984;DHT22;64625;50.882;4.376;2023-01-20T05:59:51;2.20;99.90
37984;DHT22;64625;50.882;4.376;2023-01-20T06:02:18;2.20;99.90
37984;DHT22;64625;50.882;4.376;2023-01-20T06:04:47;2.20;99.90
37984;DHT22;64625;50.882;4.376;2023-01-20T06:07:14;2.20;99.90
37984;DHT22;64625;50.882;4.376;2023-01-20T06:09:40;2.20;99.90
37984;DHT22;64625;50.882;4.376;2023-01-20T06:12:07;2.30;99.90
37984;DHT22;64625;50.882;4.376;2023-01-20T06:14:33;2.30;99.90
37984;DHT22;64625;50.882;4.376;2023-01-20T06:16:59;2.30;99.90
37984;DHT22;64625;50.882;4.376;2023-01-20T06:19:25;2.30;99.90
37984;DHT22;64625;50.882;4.376;2023-01-20T06:21:50;2.30;99.90
37984;DHT22;64625;50.882;4.376;2023-01-20T06:24:19;2.30;99.90
37984;DHT22;64625;50.882;4.376;2023-01-20T06:26:45;2.30;99.90
37984;DHT22;64625;50.882;4.376;2023-01-20T06:29:11;2.30;99.90
37984;DHT22;64625;50.882;4.376;2023-01-20T06:31:37;2.30;99.90
37984;DHT22;64625;50.882;4.376;2023-01-20T06:34:03;2.30;99.90
37984;DHT22;64625;50.882;4.376;2023-01-20T06:36:29;2.20;99.90
37984;DHT22;64625;50.882;4.376;2023-01-20T06:38:54;2.20;99.90
37984;DHT22;64625;50.882;4.376;2023-01-20T06:41:20;2.20;99.90
37984;DHT22;64625;50.882;4.376;2023-01-20T06:43:47;2.20;99.90
37984;DHT22;64625;50.882;4.376;2023-01-20T06:46:15;2.20;99.90
37984;DHT22;64625;50.882;4.376;2023-01-20T06:48:42;2.20;99.90
37984;DHT22;64625;50.882;4.376;2023-01-20T06:51:13;2.20;99.90
37984;DHT22;64625;50.882;4.376;2023-01-20T06:53:39;2.20;99.90
37984;DHT22;64625;50.882;4.376;2023-01-20T06:56:06;2.20;99.90
37984;DHT22;64625;50.882;4.376;2023-01-20T06:58:32;2.20;99.90
37984;DHT22;64625;50.882;4.376;2023-01-20T07:01:05;2.20;99.90
37984;DHT22;64625;50.882;4.376;2023-01-20T07:03:31;2.20;99.90
37984;DHT22;64625;50.882;4.376;2023-01-20T07:08:27;2.30;99.90
37984;DHT22;64625;50.882;4.376;2023-01-20T07:10:55;2.30;99.90
37984;DHT22;64625;50.882;4.376;2023-01-20T07:13:20;2.30;99.90
37984;DHT22;64625;50.882;4.376;2023-01-20T07:15:46;2.30;99.90
37984;DHT22;64625;50.882;4.376;2023-01-20T07:18:12;2.30;99.90
37984;DHT22;64625;50.882;4.376;2023-01-20T07:20:38;2.30;99.90
37984;DHT22;64625;50.882;4.376;2023-01-20T07:23:05;2.30;99.90
37984;DHT22;64625;50.882;4.376;2023-01-20T07:25:31;2.30;99.90
37984;DHT22;64625;50.882;4.376;2023-01-20T07:27:57;2.30;99.90
37984;DHT22;64625;50.882;4.376;2023-01-20T07:30:23;2.30;99.90
37984;DHT22;64625;50.882;4.376;2023-01-20T07:32:49;2.30;99.90
37984;DHT22;64625;50.882;4.376;2023-01-20T07:35:16;2.30;99.90
37984;DHT22;64625;50.882;4.376;2023-01-20T07:37:42;2.30;99.90
37984;DHT22;64625;50.882;4.376;2023-01-20T07:40:09;2.30;99.90
37984;DHT22;64625;50.882;4.376;2023-01-20T07:42:38;2.40;99.90
37984;DHT22;64625;50.882;4.376;2023-01-20T07:45:04;2.40;99.90
37984;DHT22;64625;50.882;4.376;2023-01-20T07:47:30;2.40;99.90
37984;DHT22;64625;50.882;4.376;2023-01-20T07:49:56;2.40;99.90
37984;DHT22;64625;50.882;4.376;2023-01-20T07:52:22;2.40;99.90
37984;DHT22;64625;50.882;4.376;2023-01-20T07:54:48;2.40;99.90
37984;DHT22;64625;50.882;4.376;2023-01-20T07:57:14;2.40;99.90
37984;DHT22;64625;50.882;4.376;2023-01-20T07:59:40;2.40;99.90
37984;DHT22;64625;50.882;4.376;2023-01-20T08:02:08;2.40;99.90
37984;DHT22;64625;50.882;4.376;2023-01-20T08:04:34;2.40;99.90
37984;DHT22;64625;50.882;4.376;2023-01-20T08:07:00;2.40;99.90
37984;DHT22;64625;50.882;4.376;2023-01-20T08:09:26;2.40;99.90
37984;DHT22;64625;50.882;4.376;2023-01-20T08:11:52;2.40;99.90
37984;DHT22;64625;50.882;4.376;2023-01-20T08:14:18;2.50;99.90
37984;DHT22;64625;50.882;4.376;2023-01-20T08:16:44;2.50;99.90
37984;DHT22;64625;50.882;4.376;2023-01-20T08:19:10;2.40;99.90
37984;DHT22;64625;50.882;4.376;2023-01-20T08:21:36;2.50;99.90
37984;DHT22;64625;50.882;4.376;2023-01-20T08:24:03;2.50;99.90
37984;DHT22;64625;50.882;4.376;2023-01-20T08:26:30;2.50;99.90
37984;DHT22;64625;50.882;4.376;2023-01-20T08:29:07;2.50;99.90
37984;DHT22;64625;50.882;4.376;2023-01-20T08:31:35;2.50;99.90
37984;DHT22;64625;50.882;4.376;2023-01-20T08:34:01;2.50;99.90
37984;DHT22;64625;50.882;4.376;2023-01-20T08:36:29;2.50;99.90
37984;DHT22;64625;50.882;4.376;2023-01-20T08:38:58;2.50;99.90
37984;DHT22;64625;50.882;4.376;2023-01-20T08:41:27;2.50;99.90
37984;DHT22;64625;50.882;4.376;2023-01-20T08:43:54;2.60;99.90
37984;DHT22;64625;50.882;4.376;2023-01-20T08:46:21;2.60;99.90
37984;DHT22;64625;50.882;4.376;2023-01-20T08:48:48;2.60;99.90
37984;DHT22;64625;50.882;4.376;2023-01-20T08:51:18;2.60;99.90
37984;DHT22;64625;50.882;4.376;2023-01-20T08:53:44;2.60;99.90
37984;DHT22;64625;50.882;4.376;2023-01-20T08:56:11;2.60;99.90
37984;DHT22;64625;50.882;4.376;2023-01-20T08:58:37;2.60;99.90
37984;DHT22;64625;50.882;4.376;2023-01-20T09:01:29;2.60;99.90
37984;DHT22;64625;50.882;4.376;2023-01-20T09:03:57;2.70;99.90
37984;DHT22;64625;50.882;4.376;2023-01-20T09:06:26;2.70;99.90
37984;DHT22;64625;50.882;4.376;2023-01-20T09:08:53;2.70;99.90
37984;DHT22;64625;50.882;4.376;2023-01-20T09:11:21;2.70;99.90
37984;DHT22;64625;50.882;4.376;2023-01-20T09:13:47;2.70;99.90
37984;DHT22;64625;50.882;4.376;2023-01-20T09:16:16;2.70;99.90
37984;DHT22;64625;50.882;4.376;2023-01-20T09:18:43;2.80;99.90
37984;DHT22;64625;50.882;4.376;2023-01-20T09:21:09;2.80;99.90
37984;DHT22;64625;50.882;4.376;2023-01-20T09:23:37;2.80;99.90
37984;DHT22;64625;50.882;4.376;2023-01-20T09:26:05;2.90;99.90
37984;DHT22;64625;50.882;4.376;2023-01-20T09:28:32;2.80;99.90
37984;DHT22;64625;50.882;4.376;2023-01-20T09:31:08;2.90;99.90
37984;DHT22;64625;50.882;4.376;2023-01-20T09:33:36;2.80;99.90
37984;DHT22;64625;50.882;4.376;2023-01-20T09:36:04;2.90;99.90
37984;DHT22;64625;50.882;4.376;2023-01-20T09:38:30;2.90;99.90
37984;DHT22;64625;50.882;4.376;2023-01-20T09:41:32;2.90;99.90
37984;DHT22;64625;50.882;4.376;2023-01-20T09:47:42;2.90;99.90
37984;DHT22;64625;50.882;4.376;2023-01-20T09:50:16;2.90;99.90
37984;DHT22;64625;50.882;4.376;2023-01-20T09:55:55;3.00;99.90
37984;DHT22;64625;50.882;4.376;2023-01-20T10:11:57;3.10;99.90
37984;DHT22;64625;50.882;4.376;2023-01-20T10:17:57;3.10;99.90
37984;DHT22;64625;50.882;4.376;2023-01-20T10:25:40;3.20;99.90
37984;DHT22;64625;50.882;4.376;2023-01-20T10:28:19;3.20;99.90
37984;DHT22;64625;50.882;4.376;2023-01-20T10:30:48;3.20;99.90
37984;DHT22;64625;50.882;4.376;2023-01-20T10:33:18;3.30;99.90
37984;DHT22;64625;50.882;4.376;2023-01-20T10:35:54;3.30;99.90
37984;DHT22;64625;50.882;4.376;2023-01-20T10:43:49;3.40;99.90
37984;DHT22;64625;50.882;4.376;2023-01-20T10:52:13;3.50;99.90
37984;DHT22;64625;50.882;4.376;2023-01-20T10:57:49;3.60;99.90
37984;DHT22;64625;50.882;4.376;2023-01-20T11:00:36;3.60;99.90
37984;DHT22;64625;50.882;4.376;2023-01-20T11:03:05;3.60;99.90
37984;DHT22;64625;50.882;4.376;2023-01-20T11:05:37;3.70;99.90
37984;DHT22;64625;50.882;4.376;2023-01-20T11:08:23;3.70;99.90
37984;DHT22;64625;50.882;4.376;2023-01-20T11:10:54;3.70;99.90
37984;DHT22;64625;50.882;4.376;2023-01-20T11:13:21;3.70;99.90
37984;DHT22;64625;50.882;4.376;2023-01-20T11:15:55;3.80;99.90
37984;DHT22;64625;50.882;4.376;2023-01-20T11:18:26;3.80;99.90
37984;DHT22;64625;50.882;4.376;2023-01-20T11:23:48;3.90;99.90
37984;DHT22;64625;50.882;4.376;2023-01-20T11:26:28;4.00;99.90
37984;DHT22;64625;50.882;4.376;2023-01-20T11:31:36;4.10;99.90
37984;DHT22;64625;50.882;4.376;2023-01-20T11:34:20;4.20;99.90
37984;DHT22;64625;50.882;4.376;2023-01-20T11:36:47;4.30;99.90
37984;DHT22;64625;50.882;4.376;2023-01-20T11:39:33;4.30;99.90
37984;DHT22;64625;50.882;4.376;2023-01-20T11:42:14;4.40;99.90
37984;DHT22;64625;50.882;4.376;2023-01-20T11:44:51;4.50;99.90
37984;DHT22;64625;50.882;4.376;2023-01-20T11:52:30;4.70;99.90
37984;DHT22;64625;50.882;4.376;2023-01-20T11:55:21;4.70;99.90
37984;DHT22;64625;50.882;4.376;2023-01-20T11:58:00;4.70;99.90
37984;DHT22;64625;50.882;4.376;2023-01-20T12:00:28;4.70;99.90
37984;DHT22;64625;50.882;4.376;2023-01-20T12:10:50;4.90;99.90
37984;DHT22;64625;50.882;4.376;2023-01-20T12:13:19;4.90;99.90
37984;DHT22;64625;50.882;4.376;2023-01-20T12:15:51;5.00;99.90
37984;DHT22;64625;50.882;4.376;2023-01-20T12:18:33;5.00;99.90
37984;DHT22;64625;50.882;4.376;2023-01-20T12:21:00;5.00;99.90
37984;DHT22;64625;50.882;4.376;2023-01-20T12:23:42;5.10;99.90
37984;DHT22;64625;50.882;4.376;2023-01-20T12:26:14;5.10;99.90
37984;DHT22;64625;50.882;4.376;2023-01-20T12:31:17;5.20;99.90
37984;DHT22;64625;50.882;4.376;2023-01-20T12:33:48;5.30;99.90
37984;DHT22;64625;50.882;4.376;2023-01-20T12:36:40;5.30;99.90
37984;DHT22;64625;50.882;4.376;2023-01-20T12:42:08;5.40;99.90
37984;DHT22;64625;50.882;4.376;2023-01-20T13:04:04;5.70;99.90
37984;DHT22;64625;50.882;4.376;2023-01-20T13:20:51;5.90;99.90
37984;DHT22;64625;50.882;4.376;2023-01-20T13:23:24;5.80;99.90
37984;DHT22;64625;50.882;4.376;2023-01-20T13:25:51;5.90;99.90
37984;DHT22;64625;50.882;4.376;2023-01-20T13:28:25;5.90;99.90
37984;DHT22;64625;50.882;4.376;2023-01-20T13:30:53;5.90;99.90
37984;DHT22;64625;50.882;4.376;2023-01-20T13:33:37;6.00;99.90
37984;DHT22;64625;50.882;4.376;2023-01-20T13:38:39;6.00;99.90
37984;DHT22;64625;50.882;4.376;2023-01-20T13:41:05;6.10;99.90
37984;DHT22;64625;50.882;4.376;2023-01-20T13:53:53;6.20;99.90
37984;DHT22;64625;50.882;4.376;2023-01-20T13:56:27;6.30;99.90
37984;DHT22;64625;50.882;4.376;2023-01-20T13:58:56;6.30;99.90
37984;DHT22;64625;50.882;4.376;2023-01-20T14:01:26;6.30;99.90
37984;DHT22;64625;50.882;4.376;2023-01-20T14:04:02;6.30;99.90
37984;DHT22;64625;50.882;4.376;2023-01-20T14:06:28;6.30;99.90
37984;DHT22;64625;50.882;4.376;2023-01-20T14:08:57;6.30;99.90
37984;DHT22;64625;50.882;4.376;2023-01-20T14:11:27;6.30;99.90
37984;DHT22;64625;50.882;4.376;2023-01-20T14:14:02;6.30;99.90
37984;DHT22;64625;50.882;4.376;2023-01-20T14:18:59;6.30;99.90
37984;DHT22;64625;50.882;4.376;2023-01-20T14:21:29;6.20;99.90
37984;DHT22;64625;50.882;4.376;2023-01-20T14:23:55;6.20;99.90
37984;DHT22;64625;50.882;4.376;2023-01-20T14:26:30;6.20;99.90
37984;DHT22;64625;50.882;4.376;2023-01-20T14:29:01;6.20;99.90
37984;DHT22;64625;50.882;4.376;2023-01-20T14:36:48;6.10;99.90
37984;DHT22;64625;50.882;4.376;2023-01-20T14:39:20;6.10;99.90
37984;DHT22;64625;50.882;4.376;2023-01-20T14:41:59;6.10;99.90
37984;DHT22;64625;50.882;4.376;2023-01-20T14:44:28;6.10;99.90
37984;DHT22;64625;50.882;4.376;2023-01-20T14:46:59;6.10;99.90
37984;DHT22;64625;50.882;4.376;2023-01-20T14:49:36;6.00;99.90
37984;DHT22;64625;50.882;4.376;2023-01-20T14:52:05;6.00;99.90
37984;DHT22;64625;50.882;4.376;2023-01-20T14:59:43;5.90;99.90
37984;DHT22;64625;50.882;4.376;2023-01-20T15:02:39;5.90;99.90
37984;DHT22;64625;50.882;4.376;2023-01-20T15:07:45;5.90;99.90
37984;DHT22;64625;50.882;4.376;2023-01-20T15:10:13;5.90;99.90
37984;DHT22;64625;50.882;4.376;2023-01-20T15:15:39;5.90;99.90
37984;DHT22;64625;50.882;4.376;2023-01-20T15:20:45;6.00;99.90
37984;DHT22;64625;50.882;4.376;2023-01-20T15:23:21;6.00;99.90
37984;DHT22;64625;50.882;4.376;2023-01-20T15:25:50;6.00;99.90
37984;DHT22;64625;50.882;4.376;2023-01-20T15:28:24;6.10;99.90
37984;DHT22;64625;50.882;4.376;2023-01-20T15:30:53;6.10;99.90
37984;DHT22;64625;50.882;4.376;2023-01-20T15:33:19;6.10;99.90
37984;DHT22;64625;50.882;4.376;2023-01-20T15:35:53;6.10;99.90
37984;DHT22;64625;50.882;4.376;2023-01-20T15:38:19;6.10;99.90
37984;DHT22;64625;50.882;4.376;2023-01-20T15:40:46;6.20;99.90
37984;DHT22;64625;50.882;4.376;2023-01-20T15:43:18;6.10;99.90
37984;DHT22;64625;50.882;4.376;2023-01-20T15:45:44;6.10;99.90
37984;DHT22;64625;50.882;4.376;2023-01-20T15:48:20;6.10;99.90
37984;DHT22;64625;50.882;4.376;2023-01-20T15:50:47;6.10;99.90
37984;DHT22;64625;50.882;4.376;2023-01-20T15:53:16;6.10;99.90
37984;DHT22;64625;50.882;4.376;2023-01-20T15:55:47;6.10;99.90
37984;DHT22;64625;50.882;4.376;2023-01-20T15:58:21;6.10;99.90
37984;DHT22;64625;50.882;4.376;2023-01-20T16:00:48;6.10;99.90
37984;DHT22;64625;50.882;4.376;2023-01-20T16:03:15;6.10;99.90
37984;DHT22;64625;50.882;4.376;2023-01-20T16:05:41;6.10;99.90
37984;DHT22;64625;50.882;4.376;2023-01-20T16:08:18;6.10;99.90
37984;DHT22;64625;50.882;4.376;2023-01-20T16:10:44;6.10;99.90
37984;DHT22;64625;50.882;4.376;2023-01-20T16:13:10;6.10;99.90
37984;DHT22;64625;50.882;4.376;2023-01-20T16:15:37;6.10;99.90
37984;DHT22;64625;50.882;4.376;2023-01-20T16:18:12;6.10;99.90
37984;DHT22;64625;50.882;4.376;2023-01-20T16:20:39;6.10;99.90
37984;DHT22;64625;50.882;4.376;2023-01-20T16:23:06;6.10;99.90
37984;DHT22;64625;50.882;4.376;2023-01-20T16:25:58;6.10;99.90
37984;DHT22;64625;50.882;4.376;2023-01-20T16:28:28;6.10;99.90
37984;DHT22;64625;50.882;4.376;2023-01-20T16:37:55;6.00;99.90
37984;DHT22;64625;50.882;4.376;2023-01-20T16:40:56;6.00;99.90
37984;DHT22;64625;50.882;4.376;2023-01-20T16:47:29;6.00;99.90
37984;DHT22;64625;50.882;4.376;2023-01-20T16:53:05;5.90;99.90
37984;DHT22;64625;50.882;4.376;2023-01-20T16:55:54;5.70;99.90
37984;DHT22;64625;50.882;4.376;2023-01-20T16:58:32;5.60;99.90
37984;DHT22;64625;50.882;4.376;2023-01-20T17:00:58;5.50;99.90
37984;DHT22;64625;50.882;4.376;2023-01-20T17:03:32;5.40;99.90
37984;DHT22;64625;50.882;4.376;2023-01-20T17:06:17;5.40;99.90
37984;DHT22;64625;50.882;4.376;2023-01-20T17:09:04;5.30;99.90
37984;DHT22;64625;50.882;4.376;2023-01-20T17:11:36;5.30;99.90
37984;DHT22;64625;50.882;4.376;2023-01-20T17:17:26;5.20;99.90
37984;DHT22;64625;50.882;4.376;2023-01-20T17:19:51;5.20;99.90
37984;DHT22;64625;50.882;4.376;2023-01-20T17:22:38;5.20;99.90
37984;DHT22;64625;50.882;4.376;2023-01-20T17:25:08;5.20;99.90
37984;DHT22;64625;50.882;4.376;2023-01-20T17:27:41;5.20;99.90
37984;DHT22;64625;50.882;4.376;2023-01-20T17:30:15;5.20;99.90
37984;DHT22;64625;50.882;4.376;2023-01-20T17:32:45;5.20;99.90
37984;DHT22;64625;50.882;4.376;2023-01-20T17:35:11;5.20;99.90
37984;DHT22;64625;50.882;4.376;2023-01-20T17:37:37;5.20;99.90
37984;DHT22;64625;50.882;4.376;2023-01-20T17:40:04;5.30;99.90
37984;DHT22;64625;50.882;4.376;2023-01-20T17:42:30;5.30;99.90
37984;DHT22;64625;50.882;4.376;2023-01-20T17:44:55;5.30;99.90
37984;DHT22;64625;50.882;4.376;2023-01-20T17:47:25;5.30;99.90
37984;DHT22;64625;50.882;4.376;2023-01-20T17:49:54;5.30;99.90
37984;DHT22;64625;50.882;4.376;2023-01-20T17:52:20;5.20;99.90
37984;DHT22;64625;50.882;4.376;2023-01-20T17:54:48;5.20;99.90
37984;DHT22;64625;50.882;4.376;2023-01-20T17:57:13;5.20;99.90
37984;DHT22;64625;50.882;4.376;2023-01-20T17:59:39;5.20;99.90
37984;DHT22;64625;50.882;4.376;2023-01-20T18:02:09;5.20;99.90
37984;DHT22;64625;50.882;4.376;2023-01-20T18:04:35;5.20;99.90
37984;DHT22;64625;50.882;4.376;2023-01-20T18:07:01;5.10;99.90
37984;DHT22;64625;50.882;4.376;2023-01-20T18:09:28;5.10;99.90
37984;DHT22;64625;50.882;4.376;2023-01-20T18:11:54;5.10;99.90
37984;DHT22;64625;50.882;4.376;2023-01-20T18:14:20;5.10;99.90
37984;DHT22;64625;50.882;4.376;2023-01-20T18:16:46;5.00;99.90
37984;DHT22;64625;50.882;4.376;2023-01-20T18:19:12;4.90;99.90
37984;DHT22;64625;50.882;4.376;2023-01-20T18:21:40;4.80;99.90
37984;DHT22;64625;50.882;4.376;2023-01-20T18:24:06;4.80;99.90
37984;DHT22;64625;50.882;4.376;2023-01-20T18:26:36;4.70;99.90
37984;DHT22;64625;50.882;4.376;2023-01-20T18:29:07;4.70;99.90
37984;DHT22;64625;50.882;4.376;2023-01-20T18:31:34;4.60;99.90
37984;DHT22;64625;50.882;4.376;2023-01-20T18:34:02;4.50;99.90
37984;DHT22;64625;50.882;4.376;2023-01-20T18:36:34;4.40;99.90
37984;DHT22;64625;50.882;4.376;2023-01-20T18:39:13;4.30;99.90
37984;DHT22;64625;50.882;4.376;2023-01-20T18:41:41;4.30;99.90
37984;DHT22;64625;50.882;4.376;2023-01-20T18:44:07;4.20;99.90
37984;DHT22;64625;50.882;4.376;2023-01-20T18:46:34;4.20;99.90
37984;DHT22;64625;50.882;4.376;2023-01-20T18:49:00;4.30;99.90
37984;DHT22;64625;50.882;4.376;2023-01-20T18:51:27;4.20;99.90
37984;DHT22;64625;50.882;4.376;2023-01-20T18:53:59;4.20;99.90
37984;DHT22;64625;50.882;4.376;2023-01-20T18:56:26;4.20;99.90
37984;DHT22;64625;50.882;4.376;2023-01-20T18:58:53;4.20;99.90
37984;DHT22;64625;50.882;4.376;2023-01-20T19:01:26;4.10;99.90
37984;DHT22;64625;50.882;4.376;2023-01-20T19:03:53;4.10;99.90
37984;DHT22;64625;50.882;4.376;2023-01-20T19:06:24;4.10;99.90
37984;DHT22;64625;50.882;4.376;2023-01-20T19:08:50;4.00;99.90
37984;DHT22;64625;50.882;4.376;2023-01-20T19:11:28;4.00;99.90
37984;DHT22;64625;50.882;4.376;2023-01-20T19:13:56;4.00;99.90